createdAt,value
2023-02-16T00:03:26.590Z,46.40
2023-02-16T00:08:31.719Z,37.63
2023-02-16T00:13:54.539Z,46.20
2023-02-16T00:19:00.428Z,40.80
2023-02-16T00:24:06.404Z,41.20
2023-02-16T00:29:22.080Z,42.30
2023-02-16T00:34:47.636Z,44.65
2023-02-16T00:39:53.123Z,46.45
2023-02-16T00:45:00.758Z,51.37
2023-02-16T00:50:21.218Z,49.97
2023-02-16T00:55:36.032Z,45.30
2023-02-16T01:01:07.805Z,45.60
2023-02-16T01:06:31.705Z,45.10
2023-02-16T01:11:37.482Z,42.67
2023-02-16T01:16:44.998Z,48.63
2023-02-16T01:21:50.605Z,52.60
2023-02-16T01:26:58.892Z,44.33
2023-02-16T01:32:04.492Z,51.63
2023-02-16T01:37:17.681Z,44.20
2023-02-16T01:42:23.175Z,46.53
2023-02-16T01:48:00.610Z,39.10
2023-02-16T01:53:27.838Z,47.95
2023-02-16T01:58:55.041Z,46.08
2023-02-16T02:04:18.915Z,45.28
2023-02-16T02:09:35.234Z,44.08
2023-02-16T02:14:41.920Z,49.25
2023-02-16T02:20:15.259Z,31.40
2023-02-16T02:25:56.218Z,47.75
2023-02-16T02:31:24.589Z,50.42
2023-02-16T02:36:48.900Z,40.28
2023-02-16T02:42:09.434Z,43.90
2023-02-16T02:47:24.204Z,34.72
2023-02-16T02:52:30.524Z,43.28
2023-02-16T02:58:05.450Z,44.77
2023-02-16T03:03:29.140Z,44.05
2023-02-16T03:08:38.743Z,46.97
2023-02-16T03:14:10.769Z,44.45
2023-02-16T03:19:38.485Z,41.92
2023-02-16T03:25:02.534Z,34.63
2023-02-16T03:30:10.379Z,41.33
2023-02-16T03:35:16.990Z,40.13
2023-02-16T03:40:34.230Z,37.83
2023-02-16T03:45:43.870Z,37.67
2023-02-16T03:50:49.117Z,35.28
2023-02-16T03:55:54.649Z,36.65
2023-02-16T04:01:00.471Z,36.83
2023-02-16T04:06:06.035Z,36.13
2023-02-16T04:11:29.365Z,36.97
2023-02-16T04:16:34.643Z,40.67
2023-02-16T04:21:40.181Z,38.67
2023-02-16T04:26:46.969Z,37.70
2023-02-16T04:31:53.155Z,32.47
2023-02-16T04:36:58.787Z,35.13
2023-02-16T04:42:04.409Z,36.27
2023-02-16T04:47:09.931Z,36.43
2023-02-16T04:52:16.650Z,35.17
2023-02-16T04:57:24.020Z,35.28
2023-02-16T05:02:29.528Z,37.53
2023-02-16T05:07:34.993Z,36.88
2023-02-16T05:12:58.297Z,35.93
2023-02-16T05:18:03.759Z,28.55
2023-02-16T05:23:09.079Z,34.28
2023-02-16T05:28:14.848Z,34.17
2023-02-16T05:33:20.325Z,38.73
2023-02-16T05:38:26.256Z,36.92
2023-02-16T05:43:31.942Z,42.72
2023-02-16T05:48:38.128Z,36.87
2023-02-16T05:53:44.050Z,38.47
2023-02-16T05:58:49.952Z,37.63
2023-02-16T06:03:55.603Z,27.53
2023-02-16T06:09:01.537Z,33.23
2023-02-16T06:14:19.102Z,23.15
2023-02-16T06:19:24.958Z,39.08
2023-02-16T06:24:30.566Z,38.80
2023-02-16T06:29:35.967Z,34.03
2023-02-16T06:34:41.601Z,40.53
2023-02-16T06:39:52.803Z,41.13
2023-02-16T06:44:58.438Z,38.03
2023-02-16T06:50:04.979Z,36.53
2023-02-16T06:55:11.383Z,38.13
2023-02-16T07:00:17.668Z,32.50
2023-02-16T07:05:22.876Z,39.38
2023-02-16T07:10:34.715Z,40.20
2023-02-16T07:15:49.834Z,38.50
2023-02-16T07:20:57.254Z,34.20
2023-02-16T07:26:07.782Z,37.67
2023-02-16T07:31:15.597Z,34.97
2023-02-16T07:36:21.138Z,36.80
2023-02-16T07:41:35.860Z,36.70
2023-02-16T07:46:48.482Z,36.67
2023-02-16T07:52:02.592Z,35.72
2023-02-16T07:57:08.522Z,37.05
2023-02-16T08:02:21.328Z,37.30
2023-02-16T08:07:26.942Z,34.05
2023-02-16T08:12:32.734Z,38.23
2023-02-16T08:17:38.631Z,36.80
2023-02-16T08:23:00.860Z,40.03
2023-02-16T08:28:08.461Z,38.17
2023-02-16T08:33:13.916Z,39.05
2023-02-16T08:38:19.454Z,38.53
2023-02-16T08:43:25.169Z,38.37
2023-02-16T08:48:36.971Z,39.17
2023-02-16T08:53:42.233Z,38.60
2023-02-16T08:58:49.089Z,36.63
2023-02-16T09:03:55.899Z,40.22
2023-02-16T09:14:07.839Z,40.05
2023-02-16T09:19:16.430Z,36.67
2023-02-16T09:24:23.601Z,39.13
2023-02-16T09:29:29.378Z,39.92
2023-02-16T09:34:35.171Z,41.50
2023-02-16T09:39:40.696Z,39.13
2023-02-16T09:45:05.720Z,37.30
2023-02-16T09:50:50.722Z,40.03
2023-02-16T09:56:28.032Z,41.90
2023-02-16T10:01:36.639Z,36.22
2023-02-16T10:06:45.430Z,37.47
2023-02-16T10:11:51.555Z,36.30
2023-02-16T10:17:19.679Z,37.13
2023-02-16T10:22:44.546Z,43.72
2023-02-16T10:27:56.962Z,39.33
2023-02-16T10:33:14.278Z,41.22
2023-02-16T10:38:31.983Z,42.28
2023-02-16T10:43:49.650Z,45.47
2023-02-16T10:49:00.498Z,42.60
2023-02-16T10:54:28.995Z,47.65
2023-02-16T10:59:48.704Z,44.13
2023-02-16T11:04:56.527Z,41.50
2023-02-16T11:10:20.362Z,42.88
2023-02-16T11:15:28.413Z,40.80
2023-02-16T11:20:49.171Z,44.00
2023-02-16T11:26:06.063Z,44.65
2023-02-16T11:31:45.277Z,41.88
2023-02-16T11:36:52.072Z,41.67
2023-02-16T11:42:03.753Z,47.28
2023-02-16T11:47:28.774Z,35.97
2023-02-16T11:52:34.555Z,46.53
2023-02-16T11:57:40.549Z,47.07
2023-02-16T12:03:19.462Z,44.20
2023-02-16T12:08:48.709Z,47.58
2023-02-16T12:14:06.181Z,50.75
2023-02-16T12:19:35.321Z,57.33
2023-02-16T12:25:00.100Z,54.78
2023-02-16T12:30:06.219Z,53.20
2023-02-16T12:35:34.465Z,46.20
2023-02-16T12:41:32.164Z,53.20
2023-02-16T12:52:12.368Z,54.33
2023-02-16T12:57:22.913Z,47.83
2023-02-16T13:02:44.004Z,55.13
2023-02-16T13:07:55.424Z,51.60
2023-02-16T13:13:11.218Z,48.67
2023-02-16T13:18:40.669Z,48.65
2023-02-16T13:23:52.390Z,51.80
2023-02-16T13:29:07.307Z,43.15
2023-02-16T13:34:21.779Z,52.45
2023-02-16T13:39:51.479Z,49.72
2023-02-16T13:45:03.856Z,51.53
2023-02-16T13:50:26.796Z,45.60
2023-02-16T13:55:43.524Z,54.33
2023-02-16T14:00:52.183Z,54.00
2023-02-16T14:06:35.795Z,48.72
2023-02-16T14:12:00.961Z,52.15
2023-02-16T14:17:32.633Z,51.28
2023-02-16T14:22:37.977Z,54.22
2023-02-16T14:27:48.775Z,56.40
2023-02-16T14:33:06.178Z,55.03
2023-02-16T14:38:44.627Z,58.35
2023-02-16T14:43:51.791Z,62.38
2023-02-16T14:49:28.390Z,54.97
2023-02-16T14:54:58.881Z,48.85
2023-02-16T15:00:26.199Z,49.05
2023-02-16T15:05:36.049Z,48.83
2023-02-16T15:10:46.646Z,45.95
2023-02-16T15:15:59.969Z,51.15
2023-02-16T15:21:32.645Z,53.50
2023-02-16T15:26:42.404Z,55.25
2023-02-16T15:31:48.377Z,56.33
2023-02-16T15:37:02.743Z,52.42
2023-02-16T15:42:27.980Z,51.90
2023-02-16T15:47:43.584Z,55.22
2023-02-16T15:52:51.297Z,56.15
2023-02-16T16:15:50.582Z,50.13
2023-02-16T16:26:57.483Z,52.35
2023-02-16T16:32:04.201Z,50.17
2023-02-16T16:37:46.091Z,48.65
2023-02-16T16:43:25.343Z,47.63
2023-02-16T16:48:38.804Z,50.03
2023-02-16T16:59:59.690Z,48.78
2023-02-16T17:10:26.007Z,52.55
2023-02-16T17:15:51.637Z,52.83
2023-02-16T17:26:48.442Z,47.25
2023-02-16T17:31:55.692Z,50.45
2023-02-16T17:37:04.591Z,47.15
2023-02-16T17:42:14.072Z,44.83
2023-02-16T17:47:19.977Z,48.17
2023-02-16T17:52:26.597Z,41.72
2023-02-16T18:10:37.894Z,43.22
2023-02-16T18:15:49.123Z,42.17
2023-02-16T18:20:54.994Z,44.13
2023-02-16T18:26:00.668Z,40.70
2023-02-16T18:31:11.849Z,45.60
2023-02-16T18:36:17.446Z,36.92
2023-02-16T18:41:22.927Z,45.37
2023-02-16T18:46:28.676Z,41.30
2023-02-16T18:51:35.052Z,37.07
2023-02-16T18:56:42.766Z,39.72
2023-02-16T19:01:48.067Z,38.60
2023-02-16T19:06:55.725Z,39.23
2023-02-16T19:12:01.969Z,34.65
2023-02-16T19:17:07.390Z,35.75
2023-02-16T19:22:12.841Z,31.50
2023-02-16T19:27:19.510Z,30.97
2023-02-16T19:32:25.762Z,39.78
2023-02-16T19:37:30.955Z,38.33
2023-02-16T19:42:36.693Z,37.40
2023-02-16T19:47:43.830Z,43.00
2023-02-16T19:52:48.954Z,35.85
2023-02-16T19:57:54.111Z,44.25
2023-02-16T20:02:59.760Z,43.17
2023-02-16T20:08:05.453Z,38.10
2023-02-16T20:13:11.643Z,35.30
2023-02-16T20:23:23.038Z,43.38
2023-02-16T20:28:29.118Z,40.60
2023-02-16T20:33:34.270Z,34.80
2023-02-16T20:38:39.683Z,42.03
2023-02-16T20:43:45.262Z,40.33
2023-02-16T20:48:51.552Z,38.00
2023-02-16T20:53:57.402Z,38.22
2023-02-16T20:59:02.905Z,37.05
2023-02-16T21:04:09.303Z,39.00
2023-02-16T21:09:15.319Z,33.45
2023-02-16T21:19:26.287Z,39.17
2023-02-16T21:29:36.386Z,40.17
2023-02-16T21:34:41.658Z,27.80
2023-02-16T21:40:05.583Z,31.85
2023-02-16T21:45:14.225Z,35.90
2023-02-16T21:50:20.077Z,43.35
2023-02-16T21:55:43.299Z,40.17
2023-02-16T22:00:52.838Z,40.10
2023-02-16T22:05:58.090Z,37.15
2023-02-16T22:11:30.487Z,43.03
2023-02-16T22:16:38.173Z,32.75
2023-02-16T22:21:45.563Z,37.28
2023-02-16T22:26:52.077Z,43.28
2023-02-16T22:31:57.645Z,47.63
2023-02-16T22:37:03.211Z,45.70
2023-02-16T22:42:08.373Z,45.20
2023-02-16T22:47:13.854Z,41.83
2023-02-16T22:52:19.273Z,48.87
2023-02-16T22:57:25.751Z,51.93
2023-02-16T23:02:31.447Z,52.83
2023-02-16T23:07:37.729Z,61.20
2023-02-16T23:12:43.470Z,54.63
2023-02-16T23:17:48.622Z,38.25
2023-02-16T23:22:54.360Z,58.33
2023-02-16T23:28:00.929Z,40.45
2023-02-16T23:33:06.527Z,46.20
2023-02-16T23:38:16.211Z,59.77
2023-02-16T23:43:21.389Z,50.00
2023-02-16T23:48:26.983Z,61.55
2023-02-16T23:53:32.355Z,52.47
2023-02-16T23:58:42.597Z,32.47
